createdAt,value
2023-05-11T00:01:21.642Z,55.60
2023-05-11T00:03:50.770Z,55.60
2023-05-11T00:06:22.441Z,55.60
2023-05-11T00:08:49.314Z,55.60
2023-05-11T00:11:18.872Z,55.60
2023-05-11T00:13:46.001Z,55.60
2023-05-11T00:16:13.066Z,55.60
2023-05-11T00:18:40.102Z,55.60
2023-05-11T00:21:07.471Z,55.60
2023-05-11T00:23:34.644Z,55.60
2023-05-11T00:26:03.785Z,55.50
2023-05-11T00:28:30.598Z,55.60
2023-05-11T00:30:58.458Z,55.60
2023-05-11T00:33:26.087Z,55.50
2023-05-11T00:35:53.021Z,55.50
2023-05-11T00:38:22.433Z,55.60
2023-05-11T00:40:50.075Z,55.60
2023-05-11T00:43:17.327Z,55.60
2023-05-11T00:45:47.995Z,55.60
2023-05-11T00:48:17.317Z,55.60
2023-05-11T00:50:46.800Z,55.60
2023-05-11T00:53:16.576Z,55.60
2023-05-11T00:55:46.610Z,55.60
2023-05-11T00:58:16.595Z,55.50
2023-05-11T01:00:44.431Z,56.20
2023-05-11T01:03:12.521Z,55.50
2023-05-11T01:05:53.170Z,55.50
2023-05-11T01:08:34.686Z,55.60
2023-05-11T01:11:18.062Z,55.60
2023-05-11T01:13:54.344Z,55.60
2023-05-11T01:16:26.438Z,55.60
2023-05-11T01:19:06.772Z,55.60
2023-05-11T01:21:40.217Z,55.50
2023-05-11T01:24:32.257Z,55.50
2023-05-11T01:27:43.194Z,55.50
2023-05-11T01:30:50.667Z,55.60
2023-05-11T01:33:26.800Z,55.60
2023-05-11T01:36:05.496Z,55.70
2023-05-11T01:38:39.658Z,55.60
2023-05-11T01:41:23.471Z,55.70
2023-05-11T01:44:03.770Z,55.70
2023-05-11T01:46:34.335Z,55.70
2023-05-11T01:49:07.445Z,55.70
2023-05-11T01:51:37.715Z,55.60
2023-05-11T01:54:08.191Z,55.60
2023-05-11T01:56:40.844Z,55.60
2023-05-11T01:59:08.946Z,55.70
2023-05-11T02:01:36.542Z,55.70
2023-05-11T02:04:08.091Z,55.70
2023-05-11T02:06:36.744Z,55.70
2023-05-11T02:09:04.249Z,55.90
2023-05-11T02:11:32.345Z,55.80
2023-05-11T02:14:00.283Z,55.70
2023-05-11T02:16:30.246Z,55.70
2023-05-11T02:18:59.027Z,55.80
2023-05-11T02:21:28.370Z,55.80
2023-05-11T02:23:58.406Z,55.80
2023-05-11T02:26:25.494Z,55.80
2023-05-11T02:28:52.394Z,55.80
2023-05-11T02:31:31.926Z,55.80
2023-05-11T02:34:08.308Z,55.80
2023-05-11T02:36:41.316Z,55.80
2023-05-11T02:39:12.696Z,55.80
2023-05-11T02:41:44.725Z,55.80
2023-05-11T02:44:17.631Z,55.80
2023-05-11T02:46:48.943Z,55.80
2023-05-11T02:49:18.686Z,55.70
2023-05-11T02:51:47.526Z,55.70
2023-05-11T02:54:16.949Z,55.80
2023-05-11T02:56:46.992Z,55.70
2023-05-11T02:59:14.483Z,55.70
2023-05-11T03:01:42.156Z,55.70
2023-05-11T03:04:09.121Z,55.70
2023-05-11T03:06:38.899Z,55.70
2023-05-11T03:09:11.954Z,55.70
2023-05-11T03:11:39.272Z,55.70
2023-05-11T03:14:08.739Z,55.70
2023-05-11T03:16:38.029Z,55.70
2023-05-11T03:19:07.385Z,55.80
2023-05-11T03:21:40.294Z,55.80
2023-05-11T03:24:08.429Z,55.80
2023-05-11T03:26:39.669Z,55.80
2023-05-11T03:29:08.970Z,55.80
2023-05-11T03:31:35.973Z,55.80
2023-05-11T03:34:03.156Z,55.80
2023-05-11T03:36:32.162Z,55.80
2023-05-11T03:39:00.524Z,55.80
2023-05-11T03:41:29.270Z,55.80
2023-05-11T03:44:00.274Z,56.40
2023-05-11T03:46:32.592Z,55.80
2023-05-11T03:48:59.799Z,55.80
2023-05-11T03:51:26.766Z,55.70
2023-05-11T03:53:53.803Z,55.70
2023-05-11T03:56:21.525Z,55.80
2023-05-11T03:58:48.800Z,55.80
2023-05-11T04:01:15.948Z,55.80
2023-05-11T04:03:53.738Z,55.80
2023-05-11T04:06:25.534Z,55.90
2023-05-11T04:08:54.762Z,55.90
2023-05-11T04:11:23.922Z,55.90
2023-05-11T04:13:50.797Z,55.90
2023-05-11T04:16:17.702Z,55.90
2023-05-11T04:18:44.618Z,55.90
2023-05-11T04:21:11.459Z,55.90
2023-05-11T04:23:42.922Z,55.90
2023-05-11T04:26:14.359Z,56.00
2023-05-11T04:28:43.570Z,56.00
2023-05-11T04:31:10.537Z,56.00
2023-05-11T04:33:39.749Z,56.00
2023-05-11T04:36:06.971Z,56.00
2023-05-11T04:38:33.884Z,56.00
2023-05-11T04:41:08.589Z,56.10
2023-05-11T04:43:38.291Z,56.10
2023-05-11T04:46:05.237Z,56.10
2023-05-11T04:48:32.236Z,56.10
2023-05-11T04:51:02.142Z,56.10
2023-05-11T04:53:29.024Z,56.10
2023-05-11T04:55:56.016Z,56.10
2023-05-11T04:58:23.001Z,56.10
2023-05-11T05:00:49.897Z,56.10
2023-05-11T05:03:16.936Z,56.10
2023-05-11T05:05:46.338Z,56.20
2023-05-11T05:08:13.529Z,56.20
2023-05-11T05:10:40.507Z,56.20
2023-05-11T05:13:09.621Z,56.10
2023-05-11T05:15:36.476Z,56.10
2023-05-11T05:18:03.403Z,56.10
2023-05-11T05:20:30.376Z,56.10
2023-05-11T05:22:58.883Z,56.00
2023-05-11T05:25:25.805Z,56.00
2023-05-11T05:27:52.678Z,56.00
2023-05-11T05:30:24.286Z,56.00
2023-05-11T05:32:51.360Z,56.10
2023-05-11T05:35:18.470Z,56.10
2023-05-11T05:37:47.802Z,56.20
2023-05-11T05:40:15.165Z,56.20
2023-05-11T05:42:42.046Z,56.30
2023-05-11T05:45:10.868Z,56.30
2023-05-11T05:47:39.898Z,56.40
2023-05-11T05:50:09.633Z,56.40
2023-05-11T05:52:36.486Z,56.40
2023-05-11T05:55:03.437Z,56.40
2023-05-11T05:57:30.752Z,56.40
2023-05-11T05:59:57.675Z,56.40
2023-05-11T06:02:29.622Z,56.30
2023-05-11T06:04:59.241Z,56.30
2023-05-11T06:07:28.665Z,56.20
2023-05-11T06:09:58.143Z,56.30
2023-05-11T06:12:25.081Z,56.20
2023-05-11T06:14:51.927Z,56.30
2023-05-11T06:17:18.888Z,56.20
2023-05-11T06:19:50.114Z,56.20
2023-05-11T06:22:19.263Z,56.10
2023-05-11T06:24:48.445Z,56.10
2023-05-11T06:27:18.498Z,56.10
2023-05-11T06:29:45.812Z,56.10
2023-05-11T06:32:12.717Z,56.00
2023-05-11T06:34:42.034Z,56.00
2023-05-11T06:37:09.091Z,56.10
2023-05-11T06:39:39.011Z,56.10
2023-05-11T06:42:06.922Z,56.10
2023-05-11T06:44:36.239Z,56.20
2023-05-11T06:47:05.749Z,56.10
2023-05-11T06:49:35.074Z,56.10
2023-05-11T06:52:01.993Z,56.10
2023-05-11T06:54:31.562Z,56.00
2023-05-11T06:57:03.721Z,55.90
2023-05-11T06:59:30.702Z,55.90
2023-05-11T07:02:00.086Z,56.00
2023-05-11T07:04:27.118Z,56.00
2023-05-11T07:07:01.100Z,56.00
2023-05-11T07:09:28.059Z,55.90
2023-05-11T07:11:59.598Z,56.50
2023-05-11T07:14:26.416Z,55.80
2023-05-11T07:16:53.383Z,55.90
2023-05-11T07:19:22.786Z,55.80
2023-05-11T07:21:49.890Z,55.40
2023-05-11T07:24:16.912Z,55.30
2023-05-11T07:26:45.894Z,55.30
2023-05-11T07:29:12.715Z,55.30
2023-05-11T07:31:39.659Z,55.20
2023-05-11T07:34:09.122Z,55.00
2023-05-11T07:36:36.215Z,54.90
2023-05-11T07:39:05.810Z,55.50
2023-05-11T07:41:34.805Z,54.80
2023-05-11T07:44:06.254Z,54.80
2023-05-11T07:46:35.622Z,54.70
2023-05-11T07:49:14.556Z,54.90
2023-05-11T07:51:45.702Z,54.90
2023-05-11T07:54:12.589Z,54.80
2023-05-11T07:56:42.573Z,54.80
2023-05-11T07:59:11.646Z,54.80
2023-05-11T08:01:38.712Z,54.90
2023-05-11T08:04:05.641Z,54.90
2023-05-11T08:06:33.017Z,54.90
2023-05-11T08:09:04.971Z,54.90
2023-05-11T08:11:31.815Z,54.80
2023-05-11T08:13:58.693Z,54.80
2023-05-11T08:16:27.781Z,54.70
2023-05-11T08:18:54.721Z,54.80
2023-05-11T08:21:24.136Z,54.70
2023-05-11T08:23:53.241Z,54.70
2023-05-11T08:26:20.084Z,54.70
2023-05-11T08:28:46.948Z,54.70
2023-05-11T08:31:14.376Z,54.70
2023-05-11T08:33:41.494Z,54.70
2023-05-11T08:36:08.991Z,54.60
2023-05-11T08:38:36.671Z,54.70
2023-05-11T08:41:07.701Z,54.70
2023-05-11T08:43:36.415Z,54.60
2023-05-11T08:46:07.518Z,54.60
2023-05-11T08:48:37.035Z,54.60
2023-05-11T08:51:06.483Z,54.70
2023-05-11T08:53:35.507Z,55.20
2023-05-11T08:56:07.718Z,54.50
2023-05-11T08:58:42.995Z,54.50
2023-05-11T09:01:12.418Z,54.40
2023-05-11T09:03:43.024Z,54.40
2023-05-11T09:06:11.031Z,54.40
2023-05-11T09:08:41.250Z,54.30
2023-05-11T09:11:11.128Z,54.00
2023-05-11T09:13:38.074Z,54.00
2023-05-11T09:16:19.598Z,54.10
2023-05-11T09:18:54.116Z,54.10
2023-05-11T09:21:25.373Z,54.10
2023-05-11T09:23:56.050Z,54.10
2023-05-11T09:26:28.411Z,54.10
2023-05-11T09:29:04.137Z,54.10
2023-05-11T09:31:45.887Z,53.80
2023-05-11T09:34:22.176Z,53.90
2023-05-11T09:36:55.201Z,54.20
2023-05-11T09:39:44.579Z,54.30
2023-05-11T09:42:24.276Z,53.90
2023-05-11T09:44:51.205Z,54.00
2023-05-11T09:47:21.225Z,54.00
2023-05-11T09:49:50.440Z,54.30
2023-05-11T09:52:21.239Z,54.30
2023-05-11T09:54:52.761Z,54.20
2023-05-11T09:57:29.639Z,54.20
2023-05-11T10:00:00.341Z,53.80
2023-05-11T10:02:29.814Z,53.70
2023-05-11T10:05:00.040Z,53.80
2023-05-11T10:07:32.311Z,53.80
2023-05-11T10:10:02.948Z,53.70
2023-05-11T10:12:38.345Z,53.70
2023-05-11T10:15:09.315Z,53.50
2023-05-11T10:17:37.636Z,53.20
2023-05-11T10:20:06.702Z,53.00
2023-05-11T10:22:34.132Z,52.50
2023-05-11T10:25:01.874Z,51.90
2023-05-11T10:27:34.553Z,51.40
2023-05-11T10:30:03.878Z,50.80
2023-05-11T10:32:35.851Z,50.60
2023-05-11T10:35:05.746Z,50.50
2023-05-11T10:37:38.335Z,50.40
2023-05-11T10:40:11.361Z,50.10
2023-05-11T10:42:59.954Z,50.10
2023-05-11T10:46:06.863Z,50.00
2023-05-11T10:48:45.822Z,50.30
2023-05-11T10:51:48.803Z,50.40
2023-05-11T10:54:24.594Z,50.50
2023-05-11T10:57:16.187Z,50.40
2023-05-11T11:00:35.939Z,50.40
2023-05-11T11:03:14.166Z,50.00
2023-05-11T11:05:43.746Z,49.90
2023-05-11T11:08:13.072Z,49.80
2023-05-11T11:10:46.795Z,49.80
2023-05-11T11:13:20.025Z,49.60
2023-05-11T11:15:56.021Z,49.80
2023-05-11T11:18:38.397Z,49.40
2023-05-11T11:21:05.661Z,49.30
2023-05-11T11:23:49.192Z,49.50
2023-05-11T11:26:49.259Z,49.30
2023-05-11T11:29:18.778Z,49.10
2023-05-11T11:31:45.762Z,49.30
2023-05-11T11:34:39.237Z,49.40
2023-05-11T11:37:09.426Z,49.20
2023-05-11T11:39:44.724Z,49.50
2023-05-11T11:42:30.405Z,49.40
2023-05-11T11:45:27.902Z,49.60
2023-05-11T11:48:16.131Z,49.50
2023-05-11T11:50:46.253Z,50.10
2023-05-11T11:53:36.463Z,50.20
2023-05-11T11:56:23.613Z,50.50
2023-05-11T11:58:50.463Z,50.80
2023-05-11T12:01:26.703Z,50.70
2023-05-11T12:04:06.174Z,50.60
2023-05-11T12:06:39.560Z,51.00
2023-05-11T12:09:09.933Z,51.10
2023-05-11T12:11:38.302Z,51.10
2023-05-11T12:14:06.335Z,51.10
2023-05-11T12:16:33.277Z,51.30
2023-05-11T12:19:02.200Z,51.40
2023-05-11T12:21:32.699Z,51.40
2023-05-11T12:24:06.846Z,51.40
2023-05-11T12:26:34.517Z,51.50
2023-05-11T12:29:12.702Z,51.90
2023-05-11T12:31:45.620Z,52.20
2023-05-11T12:34:19.194Z,52.20
2023-05-11T12:36:48.082Z,52.50
2023-05-11T12:39:28.261Z,53.40
2023-05-11T12:41:59.613Z,52.90
2023-05-11T12:44:29.127Z,52.90
2023-05-11T12:46:58.097Z,53.10
2023-05-11T12:49:27.568Z,53.20
2023-05-11T12:52:02.981Z,53.20
2023-05-11T12:54:38.817Z,53.30
2023-05-11T12:57:23.535Z,53.40
2023-05-11T13:00:27.808Z,53.40
2023-05-11T13:03:00.649Z,53.70
2023-05-11T13:05:29.832Z,53.60
2023-05-11T13:08:01.597Z,53.70
2023-05-11T13:10:31.651Z,53.80
2023-05-11T13:13:00.618Z,53.60
2023-05-11T13:15:32.072Z,53.50
2023-05-11T13:18:01.805Z,53.60
2023-05-11T13:20:35.590Z,53.70
2023-05-11T13:23:07.224Z,53.70
2023-05-11T13:25:54.303Z,53.70
2023-05-11T13:28:24.298Z,53.80
2023-05-11T13:31:00.205Z,53.90
2023-05-11T13:33:29.628Z,54.10
2023-05-11T13:35:58.635Z,54.10
2023-05-11T13:38:28.021Z,54.20
2023-05-11T13:40:54.927Z,54.30
2023-05-11T13:43:21.835Z,54.30
2023-05-11T13:45:48.785Z,54.30
2023-05-11T13:48:16.556Z,54.20
2023-05-11T13:50:46.036Z,54.10
2023-05-11T13:53:15.619Z,54.00
2023-05-11T13:55:43.005Z,54.00
2023-05-11T13:58:12.636Z,54.00
2023-05-11T14:00:40.284Z,54.00
2023-05-11T14:03:10.388Z,54.00
2023-05-11T14:05:39.228Z,54.10
2023-05-11T14:08:08.680Z,54.10
2023-05-11T14:10:35.638Z,54.00
2023-05-11T14:13:07.166Z,54.10
2023-05-11T14:15:34.699Z,54.20
2023-05-11T14:18:05.067Z,54.40
2023-05-11T14:20:32.176Z,54.40
2023-05-11T14:23:01.736Z,54.50
2023-05-11T14:25:31.993Z,54.50
2023-05-11T14:27:58.923Z,54.60
2023-05-11T14:30:28.495Z,54.70
2023-05-11T14:32:57.642Z,54.90
2023-05-11T14:35:24.597Z,54.80
2023-05-11T14:37:54.666Z,54.80
2023-05-11T14:40:24.195Z,55.00
2023-05-11T14:42:51.118Z,55.10
2023-05-11T14:45:20.561Z,55.00
2023-05-11T14:47:47.898Z,55.00
2023-05-11T14:50:14.854Z,54.90
2023-05-11T14:52:41.685Z,54.90
2023-05-11T14:55:12.317Z,55.00
2023-05-11T14:57:39.597Z,55.10
2023-05-11T15:00:11.179Z,55.00
2023-05-11T15:02:38.278Z,55.00
2023-05-11T15:05:09.134Z,55.10
2023-05-11T15:07:36.846Z,55.10
2023-05-11T15:10:08.724Z,55.10
2023-05-11T15:12:35.704Z,55.10
2023-05-11T15:15:05.339Z,55.10
2023-05-11T15:17:32.441Z,55.10
2023-05-11T15:20:03.909Z,55.20
2023-05-11T15:22:30.717Z,55.20
2023-05-11T15:25:00.586Z,55.40
2023-05-11T15:27:27.543Z,55.30
2023-05-11T15:29:54.486Z,55.40
2023-05-11T15:32:21.429Z,55.40
2023-05-11T15:34:59.322Z,55.50
2023-05-11T15:37:28.257Z,55.60
2023-05-11T15:39:55.228Z,55.70
2023-05-11T15:42:22.266Z,55.70
2023-05-11T15:44:49.186Z,55.80
2023-05-11T15:47:16.864Z,55.90
2023-05-11T15:49:44.406Z,55.90
2023-05-11T15:52:11.585Z,56.00
2023-05-11T15:54:38.528Z,56.10
2023-05-11T15:57:08.186Z,56.10
2023-05-11T15:59:38.030Z,56.10
2023-05-11T16:02:06.225Z,56.10
2023-05-11T16:04:33.406Z,56.10
2023-05-11T16:07:03.438Z,56.10
2023-05-11T16:09:32.805Z,56.10
2023-05-11T16:12:00.062Z,56.10
2023-05-11T16:14:26.978Z,56.20
2023-05-11T16:16:53.923Z,56.30
2023-05-11T16:19:22.895Z,56.30
2023-05-11T16:21:52.015Z,56.30
2023-05-11T16:24:21.162Z,56.30
2023-05-11T16:26:50.318Z,56.30
2023-05-11T16:29:18.335Z,56.30
2023-05-11T16:31:48.615Z,56.20
2023-05-11T16:34:15.544Z,56.30
2023-05-11T16:36:42.426Z,56.90
2023-05-11T16:39:10.088Z,56.20
2023-05-11T16:41:37.237Z,56.20
2023-05-11T16:44:04.233Z,56.10
2023-05-11T16:46:31.370Z,56.10
2023-05-11T16:48:58.735Z,56.10
2023-05-11T16:51:25.816Z,56.10
2023-05-11T16:53:52.755Z,56.10
2023-05-11T16:56:22.297Z,56.10
2023-05-11T16:58:49.268Z,56.20
2023-05-11T17:01:16.821Z,56.20
2023-05-11T17:03:43.856Z,56.20
2023-05-11T17:06:14.725Z,56.30
2023-05-11T17:08:45.159Z,56.20
2023-05-11T17:11:12.601Z,56.10
2023-05-11T17:13:39.470Z,55.90
2023-05-11T17:16:06.686Z,56.00
2023-05-11T17:18:33.726Z,56.10
2023-05-11T17:21:00.799Z,56.80
2023-05-11T17:23:27.812Z,56.20
2023-05-11T17:25:54.747Z,56.20
2023-05-11T17:28:22.204Z,56.20
2023-05-11T17:30:54.803Z,56.30
2023-05-11T17:33:24.063Z,56.40
2023-05-11T17:35:51.381Z,56.40
2023-05-11T17:38:20.705Z,56.40
2023-05-11T17:40:48.071Z,56.30
2023-05-11T17:43:15.190Z,56.30
2023-05-11T17:45:42.501Z,56.30
2023-05-11T17:48:13.046Z,56.30
2023-05-11T17:50:40.058Z,56.20
2023-05-11T17:53:07.085Z,56.30
2023-05-11T17:55:38.442Z,56.30
2023-05-11T17:58:08.081Z,56.30
2023-05-11T18:00:35.563Z,56.30
2023-05-11T18:03:02.487Z,56.30
2023-05-11T18:05:40.427Z,56.40
2023-05-11T18:08:14.891Z,56.40
2023-05-11T18:10:41.945Z,56.40
2023-05-11T18:13:08.960Z,56.50
2023-05-11T18:15:35.917Z,56.60
2023-05-11T18:18:03.401Z,56.70
2023-05-11T18:20:30.867Z,56.70
2023-05-11T18:23:00.408Z,57.40
2023-05-11T18:25:31.607Z,56.80
2023-05-11T18:27:59.304Z,56.80
2023-05-11T18:30:29.328Z,57.00
2023-05-11T18:32:56.850Z,56.80
2023-05-11T18:35:26.189Z,56.90
2023-05-11T18:37:53.570Z,56.90
2023-05-11T18:40:20.807Z,56.90
2023-05-11T18:42:52.677Z,57.00
2023-05-11T18:45:19.737Z,57.00
2023-05-11T18:47:46.738Z,57.00
2023-05-11T18:50:16.679Z,57.00
2023-05-11T18:52:46.012Z,57.00
2023-05-11T18:55:13.052Z,57.10
2023-05-11T18:57:42.088Z,57.00
2023-05-11T19:00:15.663Z,57.10
2023-05-11T19:02:48.085Z,57.10
2023-05-11T19:05:15.418Z,57.10
2023-05-11T19:07:42.283Z,57.10
2023-05-11T19:10:11.994Z,57.80
2023-05-11T19:12:38.932Z,57.20
2023-05-11T19:15:07.028Z,57.20
2023-05-11T19:17:33.964Z,57.30
2023-05-11T19:20:00.812Z,57.30
2023-05-11T19:22:27.689Z,57.30
2023-05-11T19:24:54.687Z,57.30
2023-05-11T19:27:21.726Z,57.40
2023-05-11T19:29:58.787Z,57.30
2023-05-11T19:32:25.820Z,57.40
2023-05-11T19:34:55.270Z,57.30
2023-05-11T19:37:22.438Z,57.30
2023-05-11T19:39:49.392Z,57.30
2023-05-11T19:42:17.955Z,57.30
2023-05-11T19:44:50.572Z,57.20
2023-05-11T19:47:19.151Z,57.20
2023-05-11T19:49:51.494Z,57.20
2023-05-11T19:52:18.484Z,57.20
2023-05-11T19:54:47.810Z,57.10
2023-05-11T19:57:14.849Z,57.10
2023-05-11T19:59:44.769Z,57.00
2023-05-11T20:02:11.742Z,57.00
2023-05-11T20:04:39.754Z,57.00
2023-05-11T20:07:06.726Z,57.00
2023-05-11T20:09:33.683Z,57.00
2023-05-11T20:12:00.744Z,57.10
2023-05-11T20:14:27.822Z,57.10
2023-05-11T20:16:55.648Z,57.20
2023-05-11T20:19:22.685Z,57.20
2023-05-11T20:21:49.687Z,57.20
2023-05-11T20:24:16.535Z,57.20
2023-05-11T20:26:43.408Z,57.20
2023-05-11T20:29:10.412Z,57.20
2023-05-11T20:31:37.919Z,57.30
2023-05-11T20:34:07.717Z,57.20
2023-05-11T20:36:34.674Z,57.30
2023-05-11T20:39:01.539Z,57.30
2023-05-11T20:41:31.093Z,57.30
2023-05-11T20:43:58.372Z,57.30
2023-05-11T20:46:27.634Z,57.20
2023-05-11T20:48:54.531Z,57.30
2023-05-11T20:51:23.351Z,57.30
2023-05-11T20:53:50.719Z,57.40
2023-05-11T20:56:17.854Z,57.40
2023-05-11T20:58:47.447Z,57.40
2023-05-11T21:01:16.659Z,57.30
2023-05-11T21:03:43.769Z,57.30
2023-05-11T21:06:13.204Z,57.30
2023-05-11T21:08:42.515Z,57.30
2023-05-11T21:11:12.436Z,57.40
2023-05-11T21:13:41.885Z,57.40
2023-05-11T21:16:11.152Z,57.40
2023-05-11T21:18:38.050Z,57.40
2023-05-11T21:21:05.023Z,57.40
2023-05-11T21:23:31.880Z,57.40
2023-05-11T21:26:01.540Z,57.40
2023-05-11T21:28:30.781Z,57.30
2023-05-11T21:31:02.699Z,57.30
2023-05-11T21:33:31.868Z,57.30
2023-05-11T21:36:05.841Z,57.30
2023-05-11T21:38:35.801Z,57.30
2023-05-11T21:41:05.101Z,57.40
2023-05-11T21:43:33.012Z,57.40
2023-05-11T21:45:59.997Z,57.30
2023-05-11T21:48:27.429Z,57.30
2023-05-11T21:50:57.818Z,57.40
2023-05-11T21:53:27.030Z,57.40
2023-05-11T21:55:53.993Z,57.40
2023-05-11T21:58:21.049Z,57.40
2023-05-11T22:00:47.989Z,57.50
2023-05-11T22:03:14.943Z,57.50
2023-05-11T22:05:42.205Z,57.40
2023-05-11T22:08:15.088Z,57.40
2023-05-11T22:10:43.284Z,57.50
2023-05-11T22:13:10.810Z,57.40
2023-05-11T22:15:38.193Z,57.40
2023-05-11T22:18:05.389Z,57.40
2023-05-11T22:20:33.180Z,57.30
2023-05-11T22:23:00.119Z,57.30
2023-05-11T22:25:32.608Z,57.30
2023-05-11T22:27:59.987Z,57.30
2023-05-11T22:30:26.900Z,57.30
2023-05-11T22:32:56.183Z,57.30
2023-05-11T22:35:23.244Z,57.40
2023-05-11T22:37:50.187Z,57.40
2023-05-11T22:40:17.339Z,57.40
2023-05-11T22:42:46.870Z,57.40
2023-05-11T22:45:16.497Z,57.40
2023-05-11T22:47:43.561Z,57.40
2023-05-11T22:50:12.147Z,57.40
2023-05-11T22:52:39.229Z,57.40
2023-05-11T22:55:09.288Z,57.40
2023-05-11T22:57:38.694Z,57.40
2023-05-11T23:00:06.703Z,57.40
2023-05-11T23:02:36.188Z,57.40
2023-05-11T23:05:03.558Z,57.30
2023-05-11T23:07:30.460Z,57.40
2023-05-11T23:09:57.358Z,57.30
2023-05-11T23:12:24.302Z,57.30
2023-05-11T23:14:51.156Z,57.30
2023-05-11T23:17:20.705Z,57.30
2023-05-11T23:19:48.016Z,57.20
2023-05-11T23:22:15.175Z,57.20
2023-05-11T23:24:42.043Z,57.30
2023-05-11T23:27:09.320Z,57.30
2023-05-11T23:29:40.727Z,57.30
2023-05-11T23:32:07.676Z,57.30
2023-05-11T23:34:37.954Z,57.40
2023-05-11T23:37:05.022Z,57.40
2023-05-11T23:39:31.902Z,57.40
2023-05-11T23:42:01.173Z,57.30
2023-05-11T23:44:30.258Z,57.40
2023-05-11T23:46:59.706Z,57.40
2023-05-11T23:49:28.933Z,57.50
2023-05-11T23:51:58.635Z,57.50
2023-05-11T23:54:25.541Z,57.50
2023-05-11T23:56:52.462Z,57.50
2023-05-11T23:59:19.306Z,57.40
